No particular awareness of the weather is required.    There are no Weather-warnings


Meteo18 Weather Cam more information Meteo18 Weather Cam


Thunder radar more information blitzortung!


Rain radar more information rain snow radar


Visit our other weather sites:

Template documentation
and downloads

And another site



Weather Underground History page Text

Daily Summary for April 4, 2017 Units:  English    Metric   Both
« Previous Day
Next Day »
Daily Weekly Monthly Yearly Custom
  High: Low: Average:
Temperature: 63.3 °F 44.1 °F 53.4 °F
Dew Point: 50.2 °F 38.8 °F 44.4 °F
Humidity: 87 % 54 % 72 %
Wind Speed: 12 mph 0 mph 1.8 mph
Wind Gust: 14 mph - -
Wind:- - WSW
Pressure: 30.3 in 30.2 in -
Precipitation: 0 in    
Historical Graphs
 
 
Tabular Data for April 4, 2017
Time Temperature Dew Point Pressure Wind Wind Speed Wind Gust Humidity Rainfall Rate (Hourly)
00:02 50.2 °F 41.5 °F 30.3 in WNW 2 mph 2 mph 72 % 0 in
00:12 49.8 °F 41.5 °F 30.3 in WNW 2 mph 2 mph 73 % 0 in
00:17 49.6 °F 41.4 °F 30.3 in WNW 1 mph 2 mph 73 % 0 in
00:22 49.8 °F 41.5 °F 30.3 in WNW 1 mph 2 mph 73 % 0 in
00:32 49.8 °F 41.2 °F 30.3 in WNW 2 mph 2 mph 72 % 0 in
00:42 49.5 °F 41.2 °F 30.3 in Calm   2 mph 73 % 0 in
00:47 49.3 °F 41 °F 30.3 in NW 1 mph 2 mph 73 % 0 in
00:52 49.3 °F 41 °F 30.3 in NW 1 mph 1 mph 73 % 0 in
00:57 49.5 °F 41.2 °F 30.3 in NW 1 mph 2 mph 73 % 0 in
01:02 48.9 °F 41 °F 30.3 in WNW 2 mph 2 mph 74 % 0 in
01:12 48.7 °F 40.8 °F 30.3 in WNW 2 mph 3 mph 74 % 0 in
01:17 48.6 °F 40.6 °F 30.3 in WNW 2 mph 3 mph 74 % 0 in
01:22 48 °F 40.5 °F 30.3 in Calm   2 mph 75 % 0 in
01:27 48 °F 40.5 °F 30.3 in WNW 1 mph 2 mph 75 % 0 in
01:32 48.4 °F 40.8 °F 30.3 in Calm   2 mph 75 % 0 in
01:37 47.7 °F 40.5 °F 30.3 in WNW 1 mph 1 mph 76 % 0 in
01:42 47.1 °F 40.6 °F 30.3 in WNW 2 mph 2 mph 78 % 0 in
01:47 47.3 °F 40.5 °F 30.3 in WNW 2 mph 2 mph 77 % 0 in
01:52 47.5 °F 40.3 °F 30.3 in WNW 1 mph 3 mph 76 % 0 in
01:57 46.9 °F 40.1 °F 30.3 in WNW 2 mph 3 mph 77 % 0 in
02:02 46.9 °F 40.5 °F 30.3 in WNW 2 mph 3 mph 78 % 0 in
02:07 47.1 °F 40.3 °F 30.3 in WNW 1 mph 2 mph 77 % 0 in
02:12 47.1 °F 40.3 °F 30.3 in WNW 2 mph 2 mph 77 % 0 in
02:17 46.8 °F 39.9 °F 30.3 in WNW 2 mph 2 mph 77 % 0 in
02:22 46.6 °F 40.1 °F 30.3 in WNW 2 mph 2 mph 78 % 0 in
02:27 46.6 °F 40.1 °F 30.3 in Calm   2 mph 78 % 0 in
02:32 46.6 °F 40.1 °F 30.3 in WNW 1 mph 2 mph 78 % 0 in
02:37 46.4 °F 39.9 °F 30.3 in WNW 2 mph 2 mph 78 % 0 in
02:42 46.4 °F 40.3 °F 30.3 in WNW 2 mph 2 mph 79 % 0 in
02:47 46.8 °F 40.3 °F 30.3 in WNW 1 mph 2 mph 78 % 0 in
02:52 46.8 °F 40.3 °F 30.3 in WNW 2 mph 2 mph 78 % 0 in
02:57 46.6 °F 39.7 °F 30.3 in WNW 2 mph 2 mph 77 % 0 in
03:02 46 °F 39.9 °F 30.3 in WNW 1 mph 2 mph 79 % 0 in
03:07 46.2 °F 40.1 °F 30.3 in WNW 1 mph 2 mph 79 % 0 in
03:12 46.2 °F 40.1 °F 30.3 in Calm   2 mph 79 % 0 in
03:17 46 °F 39.9 °F 30.3 in WNW 1 mph 2 mph 79 % 0 in
03:22 45.5 °F 39.7 °F 30.3 in WNW 1 mph 1 mph 80 % 0 in
03:32 45.3 °F 39.6 °F 30.3 in WNW 1 mph 2 mph 80 % 0 in
03:37 45.1 °F 39.4 °F 30.3 in Calm   2 mph 80 % 0 in
03:42 44.8 °F 39.4 °F 30.3 in WNW 2 mph 2 mph 81 % 0 in
03:47 45 °F 39.6 °F 30.3 in Calm   2 mph 81 % 0 in
03:52 45.7 °F 40.1 °F 30.3 in Calm   2 mph 81 % 0 in
03:57 45.9 °F 39.7 °F 30.3 in Calm   2 mph 79 % 0 in
04:02 45.7 °F 39.6 °F 30.3 in Calm   1 mph 79 % 0 in
04:07 45.1 °F 39.4 °F 30.3 in Calm   1 mph 80 % 0 in
04:12 45 °F 39.6 °F 30.3 in Calm   1 mph 81 % 0 in
04:17 45 °F 39.7 °F 30.3 in Calm   1 mph 82 % 0 in
04:22 45 °F 39.6 °F 30.3 in Calm   1 mph 81 % 0 in
04:27 45.1 °F 39.7 °F 30.3 in Calm   1 mph 81 % 0 in
04:32 45.1 °F 39.7 °F 30.3 in Calm     81 % 0 in
04:37 44.6 °F 39.2 °F 30.3 in Calm   1 mph 81 % 0 in
04:42 44.2 °F 39 °F 30.3 in Calm   1 mph 82 % 0 in
04:47 44.1 °F 38.8 °F 30.3 in Calm   1 mph 82 % 0 in
04:52 44.1 °F 39.2 °F 30.3 in Calm   1 mph 83 % 0 in
04:57 44.4 °F 39.2 °F 30.3 in Calm     82 % 0 in
05:02 44.8 °F 39.6 °F 30.3 in Calm     82 % 0 in
05:12 45.3 °F 39.9 °F 30.3 in Calm     81 % 0 in
05:17 45.5 °F 40.3 °F 30.3 in Calm   2 mph 82 % 0 in
05:22 45.9 °F 40.1 °F 30.3 in Calm   2 mph 80 % 0 in
05:27 45.7 °F 40.5 °F 30.3 in Calm   2 mph 82 % 0 in
05:32 45.3 °F 40.5 °F 30.3 in Calm   2 mph 83 % 0 in
05:37 45.1 °F 40.3 °F 30.3 in Calm   2 mph 83 % 0 in
05:42 45.3 °F 40.8 °F 30.3 in NE 5 mph 5 mph 84 % 0 in
05:52 45 °F 40.6 °F 30.3 in Calm   8 mph 85 % 0 in
05:57 44.8 °F 40.8 °F 30.3 in Calm   8 mph 86 % 0 in
06:02 44.8 °F 41.2 °F 30.3 in Calm   5 mph 87 % 0 in
06:12 45 °F 41.4 °F 30.3 in Calm   2 mph 87 % 0 in
06:17 45.1 °F 41.5 °F 30.3 in NW 1 mph 2 mph 87 % 0 in
06:22 45.3 °F 41.7 °F 30.3 in NNW 1 mph 7 mph 87 % 0 in
06:27 45.5 °F 41.5 °F 30.3 in NW 1 mph 7 mph 86 % 0 in
06:32 45.7 °F 41.7 °F 30.3 in Calm   2 mph 86 % 0 in
06:42 46 °F 41.5 °F 30.3 in Calm   1 mph 84 % 0 in
06:47 46 °F 41.7 °F 30.3 in Calm   1 mph 85 % 0 in
06:52 45.9 °F 41.5 °F 30.3 in Calm   2 mph 85 % 0 in
07:02 45.9 °F 41.5 °F 30.3 in Calm   2 mph 85 % 0 in
07:07 46 °F 41.7 °F 30.3 in Calm   2 mph 85 % 0 in
07:12 45.9 °F 41.9 °F 30.3 in Calm   2 mph 86 % 0 in
07:17 45.7 °F 41.7 °F 30.3 in Calm   1 mph 86 % 0 in
07:22 45.7 °F 41.7 °F 30.3 in Calm   1 mph 86 % 0 in
07:32 45.5 °F 41.9 °F 30.3 in Calm   1 mph 87 % 0 in
07:37 45.5 °F 41.9 °F 30.3 in Calm   1 mph 87 % 0 in
07:42 45.7 °F 42.1 °F 30.3 in Calm   1 mph 87 % 0 in
07:52 46 °F 42.1 °F 30.3 in Calm   1 mph 86 % 0 in
07:57 46 °F 42.1 °F 30.3 in Calm   1 mph 86 % 0 in
08:02 46 °F 42.1 °F 30.3 in NNE 2 mph 2 mph 86 % 0 in
08:12 46.9 °F 42.4 °F 30.3 in NNW 1 mph 3 mph 84 % 0 in
08:17 46.9 °F 42.4 °F 30.3 in Calm   3 mph 84 % 0 in
08:22 46.9 °F 42.6 °F 30.3 in Calm   1 mph 85 % 0 in
08:32 46.8 °F 42.4 °F 30.3 in Calm   2 mph 85 % 0 in
08:37 46.8 °F 42.4 °F 30.3 in North 2 mph 2 mph 85 % 0 in
08:42 47.3 °F 43 °F 30.3 in Calm   3 mph 85 % 0 in
08:47 48.2 °F 43.3 °F 30.3 in Calm   3 mph 83 % 0 in
08:52 49.5 °F 43.5 °F 30.3 in Calm   3 mph 80 % 0 in
08:57 50.5 °F 43.5 °F 30.3 in Calm   1 mph 77 % 0 in
09:02 50.5 °F 44.6 °F 30.3 in Calm     80 % 0 in
09:12 50.5 °F 45.3 °F 30.3 in Calm   1 mph 82 % 0 in
09:17 51.3 °F 46 °F 30.3 in Calm   1 mph 82 % 0 in
09:22 52.5 °F 46.6 °F 30.3 in Calm   1 mph 80 % 0 in
09:27 53.8 °F 46.4 °F 30.3 in Calm   1 mph 76 % 0 in
09:32 54 °F 47.3 °F 30.3 in Calm   1 mph 78 % 0 in
09:37 54.1 °F 47.1 °F 30.3 in Calm   1 mph 77 % 0 in
09:42 54.3 °F 47.7 °F 30.3 in East 1 mph 2 mph 78 % 0 in
09:47 54.9 °F 47.8 °F 30.3 in Calm   2 mph 77 % 0 in
09:52 55.2 °F 47.8 °F 30.3 in ESE 1 mph 2 mph 76 % 0 in
09:57 56.1 °F 48 °F 30.3 in East 1 mph 2 mph 74 % 0 in
10:02 55.9 °F 47.1 °F 30.3 in East 1 mph 2 mph 72 % 0 in
10:07 56.8 °F 47.1 °F 30.3 in SE 1 mph 2 mph 70 % 0 in
10:12 57.6 °F 46.8 °F 30.3 in SE 1 mph 2 mph 67 % 0 in
10:17 57.7 °F 47.3 °F 30.3 in SSE 1 mph 3 mph 68 % 0 in
10:22 57.7 °F 47.7 °F 30.3 in Calm   3 mph 69 % 0 in
10:32 58.5 °F 49.1 °F 30.3 in SE 3 mph 3 mph 71 % 0 in
10:42 58.5 °F 48.7 °F 30.3 in ESE 3 mph 4 mph 70 % 0 in
10:47 58.5 °F 49.5 °F 30.3 in East 1 mph 3 mph 72 % 0 in
10:52 58.3 °F 49.6 °F 30.3 in Calm   3 mph 73 % 0 in
10:57 58.3 °F 49.6 °F 30.3 in East 2 mph 3 mph 73 % 0 in
11:02 57.9 °F 49.6 °F 30.3 in SE 1 mph 3 mph 74 % 0 in
11:07 58.5 °F 48.7 °F 30.3 in East 3 mph 3 mph 70 % 0 in
11:12 58.6 °F 48.9 °F 30.3 in ESE 4 mph 4 mph 70 % 0 in
11:17 59.4 °F 50 °F 30.3 in SE 1 mph 4 mph 71 % 0 in
11:22 59.7 °F 50 °F 30.3 in ESE 3 mph 4 mph 70 % 0 in
11:27 59.5 °F 49.3 °F 30.3 in SE 1 mph 5 mph 69 % 0 in
11:32 59.5 °F 48.6 °F 30.3 in SSE 3 mph 5 mph 67 % 0 in
11:37 60.1 °F 50.2 °F 30.3 in ENE 2 mph 5 mph 70 % 0 in
11:42 60.3 °F 49.3 °F 30.3 in SE 1 mph 5 mph 67 % 0 in
11:47 60.3 °F 50 °F 30.3 in SSE 2 mph 4 mph 69 % 0 in
11:52 60.1 °F 49.5 °F 30.3 in Calm   4 mph 68 % 0 in
11:57 59.9 °F 48.6 °F 30.3 in SSW 1 mph 3 mph 66 % 0 in
12:02 60.1 °F 47.8 °F 30.3 in South 1 mph 3 mph 64 % 0 in
12:07 60.1 °F 47.5 °F 30.3 in SSW 1 mph 3 mph 63 % 0 in
12:12 60.3 °F 46.4 °F 30.3 in South 2 mph 3 mph 60 % 0 in
12:17 60.3 °F 46.4 °F 30.3 in SSW 3 mph 5 mph 60 % 0 in
12:22 60.3 °F 46.4 °F 30.3 in SSW 5 mph 6 mph 60 % 0 in
12:27 60.3 °F 46.4 °F 30.3 in SSW 8 mph 8 mph 60 % 0 in
12:32 60.3 °F 46.8 °F 30.3 in SSW 3 mph 8 mph 61 % 0 in
12:42 61 °F 46.6 °F 30.3 in SW 5 mph 8 mph 59 % 0 in
12:47 60.8 °F 46.4 °F 30.3 in SSW 6 mph 8 mph 59 % 0 in
12:52 60.4 °F 46.9 °F 30.3 in SW 4 mph 8 mph 61 % 0 in
12:57 60.3 °F 46.8 °F 30.3 in SSW 2 mph 8 mph 61 % 0 in
13:02 60.3 °F 47.1 °F 30.3 in ENE 1 mph 7 mph 62 % 0 in
13:07 60.1 °F 47.8 °F 30.3 in North 1 mph 6 mph 64 % 0 in
13:12 60.1 °F 48.2 °F 30.3 in NNE 1 mph 3 mph 65 % 0 in
13:17 60.1 °F 48.2 °F 30.3 in North 2 mph 3 mph 65 % 0 in
13:22 60.4 °F 47.3 °F 30.3 in East 1 mph 3 mph 62 % 0 in
13:32 61.9 °F 46.9 °F 30.3 in Calm   4 mph 58 % 0 in
13:37 62.6 °F 46.8 °F 30.3 in SE 2 mph 4 mph 56 % 0 in
13:42 63.3 °F 48.4 °F 30.3 in ENE 1 mph 4 mph 58 % 0 in
13:47 63 °F 46 °F 30.3 in ENE 3 mph 5 mph 54 % 0 in
13:52 62.2 °F 46.4 °F 30.3 in ENE 2 mph 6 mph 56 % 0 in
13:57 62.1 °F 45.7 °F 30.3 in SSE 1 mph 6 mph 55 % 0 in
14:02 61.9 °F 46.4 °F 30.3 in ENE 2 mph 4 mph 57 % 0 in
14:07 61.9 °F 46.9 °F 30.3 in ENE 3 mph 4 mph 58 % 0 in
14:12 61.5 °F 45.7 °F 30.3 in East 1 mph 4 mph 56 % 0 in
14:17 61.7 °F 46.8 °F 30.3 in Calm   4 mph 58 % 0 in
14:22 61.9 °F 46.4 °F 30.2 in Calm   4 mph 57 % 0 in
14:27 62.2 °F 45.3 °F 30.2 in Calm   2 mph 54 % 0 in
14:32 62.1 °F 45.1 °F 30.2 in Calm   2 mph 54 % 0 in
14:37 62.1 °F 45.7 °F 30.2 in WNW 2 mph 2 mph 55 % 0 in
14:42 61.9 °F 45.1 °F 30.2 in Calm   2 mph 54 % 0 in
14:47 61.7 °F 45.3 °F 30.2 in Calm   2 mph 55 % 0 in
14:57 61.7 °F 45.3 °F 30.2 in Calm     55 % 0 in
15:02 61.5 °F 45.1 °F 30.2 in Calm     55 % 0 in
15:07 61.3 °F 45 °F 30.2 in Calm     55 % 0 in
15:12 61.3 °F 45 °F 30.2 in Calm     55 % 0 in
15:17 61.3 °F 46.4 °F 30.2 in Calm     58 % 0 in
15:22 61.5 °F 45.1 °F 30.2 in Calm     55 % 0 in
15:27 61.5 °F 45.1 °F 30.2 in Calm     55 % 0 in
15:32 61.7 °F 45.3 °F 30.2 in Calm     55 % 0 in
15:37 61.7 °F 45.3 °F 30.2 in Calm     55 % 0 in
15:42 61.5 °F 45.7 °F 30.2 in West 2 mph   56 % 0 in
15:47 61.5 °F 46.2 °F 30.2 in West 4 mph 4 mph 57 % 0 in
15:52 61.3 °F 46.4 °F 30.2 in West 4 mph 4 mph 58 % 0 in
15:57 61.3 °F 46.4 °F 30.2 in West 2 mph 4 mph 58 % 0 in
16:02 61.2 °F 45.9 °F 30.2 in West 1 mph 4 mph 57 % 0 in
16:07 61 °F 45.1 °F 30.2 in West 3 mph 4 mph 56 % 0 in
16:12 60.8 °F 45.9 °F 30.2 in WSW 6 mph 6 mph 58 % 0 in
16:17 60.6 °F 45.7 °F 30.2 in West 3 mph 6 mph 58 % 0 in
16:22 60.3 °F 47.1 °F 30.2 in Calm   6 mph 62 % 0 in
16:32 59.5 °F 46.9 °F 30.2 in NW 1 mph 6 mph 63 % 0 in
16:37 59.4 °F 46.4 °F 30.2 in Calm   5 mph 62 % 0 in
16:42 59.2 °F 46.9 °F 30.2 in West 1 mph 5 mph 64 % 0 in
16:52 58.8 °F 46.6 °F 30.2 in West 1 mph 2 mph 64 % 0 in
16:57 59 °F 46.4 °F 30.2 in WNW 1 mph 3 mph 63 % 0 in
17:02 59 °F 46 °F 30.2 in WNW 5 mph 5 mph 62 % 0 in
17:07 58.8 °F 46.2 °F 30.2 in WSW 4 mph 7 mph 63 % 0 in
17:12 58.5 °F 46.4 °F 30.2 in West 4 mph 10 mph 64 % 0 in
17:17 58.1 °F 46.8 °F 30.2 in West 2 mph 10 mph 66 % 0 in
17:22 57.9 °F 46.9 °F 30.2 in NW 6 mph 10 mph 67 % 0 in
17:27 57.7 °F 46.9 °F 30.2 in NNW 3 mph 10 mph 67 % 0 in
17:32 57.9 °F 46.9 °F 30.2 in WNW 5 mph 10 mph 67 % 0 in
17:37 57.7 °F 46 °F 30.2 in WNW 2 mph 9 mph 65 % 0 in
17:42 57.6 °F 45.9 °F 30.2 in WNW 3 mph 11 mph 65 % 0 in
17:47 57.6 °F 46.2 °F 30.2 in WNW 5 mph 11 mph 66 % 0 in
17:52 57.4 °F 45.7 °F 30.2 in WNW 4 mph 11 mph 65 % 0 in
17:57 57.4 °F 45.7 °F 30.2 in NW 4 mph 8 mph 65 % 0 in
18:02 57.2 °F 45.5 °F 30.2 in WNW 3 mph 8 mph 65 % 0 in
18:12 57 °F 44.6 °F 30.2 in NW 3 mph 7 mph 63 % 0 in
18:17 57 °F 44.6 °F 30.2 in WNW 6 mph 8 mph 63 % 0 in
18:22 57 °F 44.6 °F 30.2 in WNW 3 mph 8 mph 63 % 0 in
18:32 57 °F 44.6 °F 30.2 in WNW 3 mph 8 mph 63 % 0 in
18:42 57 °F 43.7 °F 30.2 in WNW 5 mph 8 mph 61 % 0 in
18:47 57 °F 44.6 °F 30.2 in NW 4 mph 8 mph 63 % 0 in
18:52 56.8 °F 44.4 °F 30.2 in NW 3 mph 7 mph 63 % 0 in
18:57 56.7 °F 44.6 °F 30.2 in WNW 4 mph 7 mph 64 % 0 in
19:02 56.7 °F 44.6 °F 30.2 in WNW 1 mph 5 mph 64 % 0 in
19:07 56.5 °F 44.8 °F 30.2 in WNW 2 mph 7 mph 65 % 0 in
19:12 56.3 °F 44.6 °F 30.2 in NW 3 mph 7 mph 65 % 0 in
19:17 56.1 °F 45.3 °F 30.2 in West 2 mph 7 mph 67 % 0 in
19:22 55.8 °F 45.3 °F 30.2 in West 4 mph 7 mph 68 % 0 in
19:27 55.6 °F 45.5 °F 30.2 in West 3 mph 7 mph 69 % 0 in
19:32 55.2 °F 45.7 °F 30.2 in WNW 5 mph 7 mph 70 % 0 in
19:37 55 °F 45.9 °F 30.2 in WNW 5 mph 7 mph 71 % 0 in
19:42 54.9 °F 46 °F 30.3 in West 2 mph 7 mph 72 % 0 in
19:47 54.7 °F 45.9 °F 30.3 in West 2 mph 7 mph 72 % 0 in
19:52 54.3 °F 45.9 °F 30.2 in WNW 4 mph 6 mph 73 % 0 in
19:57 54.1 °F 46 °F 30.2 in WNW 3 mph 6 mph 74 % 0 in
20:02 54 °F 46.2 °F 30.2 in NW 2 mph 5 mph 75 % 0 in
20:07 53.8 °F 46 °F 30.2 in WNW 2 mph 5 mph 75 % 0 in
20:12 53.8 °F 46.4 °F 30.2 in West 2 mph 5 mph 76 % 0 in
20:17 53.4 °F 46.4 °F 30.2 in West 1 mph 5 mph 77 % 0 in
20:22 53.4 °F 46.4 °F 30.2 in WSW 1 mph 5 mph 77 % 0 in
20:27 53.4 °F 46.4 °F 30.2 in NW 3 mph 4 mph 77 % 0 in
20:32 53.4 °F 46.8 °F 30.2 in NW 1 mph 5 mph 78 % 0 in
20:37 53.2 °F 46.6 °F 30.2 in WNW 3 mph 5 mph 78 % 0 in
20:42 53.2 °F 46.6 °F 30.3 in West 1 mph 5 mph 78 % 0 in
20:47 53.2 °F 46.6 °F 30.3 in WNW 3 mph 5 mph 78 % 0 in
20:52 53.4 °F 46.4 °F 30.3 in WNW 4 mph 5 mph 77 % 0 in
20:57 53.4 °F 46 °F 30.3 in WNW 2 mph 5 mph 76 % 0 in
21:02 53.4 °F 46 °F 30.3 in WNW 1 mph 5 mph 76 % 0 in
21:07 53.6 °F 45.9 °F 30.3 in WNW 5 mph 6 mph 75 % 0 in
21:12 53.8 °F 45.7 °F 30.3 in WNW 3 mph 6 mph 74 % 0 in
21:17 54 °F 45.9 °F 30.3 in NW 4 mph 6 mph 74 % 0 in
21:22 54 °F 45.9 °F 30.3 in WNW 4 mph 8 mph 74 % 0 in
21:32 54 °F 45.5 °F 30.3 in WNW 5 mph 8 mph 73 % 0 in
21:37 54.1 °F 45.7 °F 30.3 in WNW 4 mph 7 mph 73 % 0 in
21:42 54.1 °F 45.7 °F 30.3 in NW 1 mph 7 mph 73 % 0 in
21:47 54 °F 45.1 °F 30.3 in NW 2 mph 9 mph 72 % 0 in
21:52 54 °F 45.1 °F 30.3 in WNW 2 mph 9 mph 72 % 0 in
21:57 54 °F 45.1 °F 30.3 in NW 5 mph 7 mph 72 % 0 in
22:02 54 °F 45.5 °F 30.3 in WNW 2 mph 7 mph 73 % 0 in
22:07 54 °F 45.5 °F 30.3 in WNW 3 mph 9 mph 73 % 0 in
22:12 54 °F 45.9 °F 30.3 in West 2 mph 9 mph 74 % 0 in
22:17 54 °F 45.9 °F 30.3 in WNW 7 mph 9 mph 74 % 0 in
22:22 54 °F 45.9 °F 30.3 in WNW 5 mph 9 mph 74 % 0 in
22:27 53.8 °F 46 °F 30.3 in WNW 5 mph 9 mph 75 % 0 in
22:32 53.8 °F 46.4 °F 30.3 in WSW 2 mph 9 mph 76 % 0 in
22:37 53.8 °F 46.4 °F 30.3 in NW 5 mph 9 mph 76 % 0 in
22:42 53.8 °F 46.8 °F 30.3 in West 4 mph 9 mph 77 % 0 in
22:47 53.6 °F 46.6 °F 30.3 in NW 1 mph 9 mph 77 % 0 in
22:52 53.6 °F 46.9 °F 30.3 in NNW 1 mph 9 mph 78 % 0 in
22:57 53.6 °F 46.9 °F 30.3 in WNW 3 mph 9 mph 78 % 0 in
23:02 53.6 °F 46.9 °F 30.3 in NW 7 mph 7 mph 78 % 0 in
23:07 53.4 °F 47.1 °F 30.3 in NW 2 mph 10 mph 79 % 0 in
23:12 53.4 °F 47.1 °F 30.3 in WNW 1 mph 10 mph 79 % 0 in
23:17 53.4 °F 47.1 °F 30.3 in NW 3 mph 10 mph 79 % 0 in
23:22 53.4 °F 47.1 °F 30.3 in NNW 2 mph 9 mph 79 % 0 in
23:27 53.4 °F 47.1 °F 30.3 in NW 3 mph 9 mph 79 % 0 in
23:32 53.4 °F 46.8 °F 30.3 in NW 5 mph 9 mph 78 % 0 in
23:37 53.4 °F 46.8 °F 30.3 in NNW 6 mph 9 mph 78 % 0 in
23:42 53.8 °F 46.8 °F 30.3 in NNW 6 mph 9 mph 77 % 0 in
23:47 53.8 °F 46.4 °F 30.3 in North 12 mph 13 mph 76 % 0 in
23:52 54 °F 46.6 °F 30.3 in NNW 10 mph 14 mph 76 % 0 in
23:57 54 °F 46.2 °F 30.3 in North 7 mph 14 mph 75 % 0 in
Meteo18
Compliments of Weather Underground - 4 mb

Script developed by  Jim McMurry - jmcmurry@mwt.net Adapted for the template by  Wim van der Kuil - Leuven-Template.eu

You find our weather info also at:

European Weather Network

Weather Underground

Equipment we use:

Weather-station
Davis Vue

Weather-program
Meteohub

Weather-server
Raspberry PI 2 B+

Provider
1 and 1

Davis Vue

Meteohub

Raspberry PI 2 B+

1 and 1